createdAt,value
2018-12-12T00:00:47.783Z,37.97
2018-12-12T00:03:16.154Z,40.53
2018-12-12T00:05:44.507Z,45.57
2018-12-12T00:08:12.797Z,46.03
2018-12-12T00:10:41.050Z,36.57
2018-12-12T00:13:09.270Z,45.00
2018-12-12T00:15:37.630Z,42.00
2018-12-12T00:18:05.990Z,38.40
2018-12-12T00:20:34.344Z,50.47
2018-12-12T00:23:02.643Z,56.00
2018-12-12T00:25:30.948Z,39.53
2018-12-12T00:27:59.266Z,38.77
2018-12-12T00:30:27.558Z,36.77
2018-12-12T00:32:55.899Z,44.70
2018-12-12T00:35:24.138Z,53.13
2018-12-12T00:37:52.378Z,46.03
2018-12-12T00:40:20.902Z,55.63
2018-12-12T00:42:50.094Z,51.37
2018-12-12T00:45:18.454Z,50.87
2018-12-12T00:47:46.714Z,54.30
2018-12-12T00:50:14.997Z,66.03
2018-12-12T00:52:43.243Z,51.00
2018-12-12T00:55:11.606Z,53.83
2018-12-12T00:57:39.937Z,57.97
2018-12-12T01:00:08.732Z,48.77
2018-12-12T01:02:37.110Z,46.50
2018-12-12T01:05:05.801Z,57.60
2018-12-12T01:07:34.070Z,62.87
2018-12-12T01:10:02.955Z,68.47
2018-12-12T01:12:31.314Z,49.93
2018-12-12T01:14:59.575Z,57.60
2018-12-12T01:17:27.855Z,40.77
2018-12-12T01:19:56.219Z,52.43
2018-12-12T01:22:24.487Z,52.27
2018-12-12T01:24:53.165Z,47.60
2018-12-12T01:27:21.424Z,41.40
2018-12-12T01:29:49.746Z,59.73
2018-12-12T01:32:18.181Z,39.93
2018-12-12T01:34:46.438Z,53.53
2018-12-12T01:37:14.875Z,35.17
2018-12-12T01:39:43.333Z,42.00
2018-12-12T01:42:13.188Z,40.97
2018-12-12T01:44:41.529Z,48.17
2018-12-12T01:47:10.362Z,39.00
2018-12-12T01:49:38.627Z,40.30
2018-12-12T01:52:06.915Z,38.63
2018-12-12T01:54:35.204Z,33.97
2018-12-12T01:57:04.565Z,33.67
2018-12-12T01:59:32.879Z,34.10
2018-12-12T02:02:01.138Z,32.47
2018-12-12T02:04:29.410Z,47.93
2018-12-12T02:06:57.688Z,40.87
2018-12-12T02:09:25.991Z,39.47
2018-12-12T02:11:54.501Z,40.90
2018-12-12T02:14:22.804Z,36.73
2018-12-12T02:16:51.423Z,32.47
2018-12-12T02:19:19.715Z,42.20
2018-12-12T02:21:47.982Z,33.63
2018-12-12T02:24:16.322Z,44.13
2018-12-12T02:26:44.569Z,29.40
2018-12-12T02:29:12.914Z,36.30
2018-12-12T02:31:41.134Z,45.47
2018-12-12T02:34:09.687Z,39.83
2018-12-12T02:36:38.056Z,41.07
2018-12-12T02:39:08.758Z,37.93
2018-12-12T02:41:37.171Z,51.63
2018-12-12T02:44:05.512Z,42.03
2018-12-12T02:46:33.823Z,42.43
2018-12-12T02:49:02.349Z,37.47
2018-12-12T02:51:30.660Z,40.43
2018-12-12T02:53:58.956Z,45.30
2018-12-12T02:56:27.354Z,45.20
2018-12-12T02:58:55.642Z,32.27
2018-12-12T03:01:24.820Z,44.00
2018-12-12T03:03:53.273Z,35.80
2018-12-12T03:06:21.593Z,37.47
2018-12-12T03:08:49.886Z,36.10
2018-12-12T03:11:22.950Z,36.80
2018-12-12T03:13:51.810Z,41.40
2018-12-12T03:16:20.432Z,41.80
2018-12-12T03:18:48.822Z,39.97
2018-12-12T03:21:17.309Z,88.57
2018-12-12T03:23:45.624Z,44.17
2018-12-12T03:26:13.943Z,49.73
2018-12-12T03:28:42.216Z,41.20
2018-12-12T03:31:10.550Z,44.17
2018-12-12T03:33:38.900Z,39.23
2018-12-12T03:36:07.296Z,38.97
2018-12-12T03:38:35.546Z,39.27
2018-12-12T03:41:03.864Z,52.63
2018-12-12T03:43:32.250Z,38.90
2018-12-12T03:46:00.591Z,48.90
2018-12-12T03:48:28.839Z,43.63
2018-12-12T03:50:57.125Z,54.27
2018-12-12T03:53:25.486Z,41.93
2018-12-12T03:55:53.761Z,45.40
2018-12-12T03:58:22.046Z,40.13
2018-12-12T04:00:50.497Z,38.87
2018-12-12T04:03:18.840Z,40.73
2018-12-12T04:05:47.098Z,35.83
2018-12-12T04:08:15.345Z,44.20
2018-12-12T04:10:43.770Z,44.60
2018-12-12T04:13:12.023Z,36.57
2018-12-12T04:15:40.474Z,56.50
2018-12-12T04:18:08.819Z,43.17
2018-12-12T04:20:37.158Z,32.20
2018-12-12T04:23:05.372Z,43.20
2018-12-12T04:25:33.704Z,40.80
2018-12-12T04:28:02.126Z,35.33
2018-12-12T04:30:30.406Z,25.40
2018-12-12T04:32:58.653Z,27.27
2018-12-12T04:35:27.029Z,38.93
2018-12-12T04:37:57.709Z,30.30
2018-12-12T04:40:26.658Z,28.73
2018-12-12T04:42:55.097Z,23.57
2018-12-12T04:45:23.422Z,22.63
2018-12-12T04:47:51.681Z,31.10
2018-12-12T04:50:20.048Z,27.43
2018-12-12T04:52:48.321Z,33.03
2018-12-12T04:55:16.542Z,13.40
2018-12-12T04:57:44.926Z,23.10
2018-12-12T05:00:13.190Z,17.40
2018-12-12T05:02:41.902Z,14.37
2018-12-12T05:05:10.222Z,10.73
2018-12-12T05:07:38.521Z,10.57
2018-12-12T05:10:07.312Z,14.00
2018-12-12T05:12:35.670Z,13.87
2018-12-12T05:15:04.263Z,15.67
2018-12-12T05:17:32.678Z,9.23
2018-12-12T05:20:01.616Z,16.33
2018-12-12T05:22:30.506Z,12.53
2018-12-12T05:24:58.735Z,15.60
2018-12-12T05:27:26.987Z,9.60
2018-12-12T05:29:55.241Z,16.47
2018-12-12T05:32:23.478Z,11.83
2018-12-12T05:34:51.801Z,13.20
2018-12-12T05:37:20.080Z,12.23
2018-12-12T05:39:48.400Z,17.43
2018-12-12T05:42:16.638Z,11.57
2018-12-12T05:44:45.594Z,15.43
2018-12-12T05:47:14.323Z,14.07
2018-12-12T05:49:42.679Z,11.37
2018-12-12T05:52:10.980Z,15.00
2018-12-12T05:54:39.369Z,10.43
2018-12-12T05:57:07.626Z,18.47
2018-12-12T05:59:35.886Z,10.90
2018-12-12T06:02:04.329Z,13.47
2018-12-12T06:04:32.676Z,14.47
2018-12-12T06:07:01.022Z,11.80
2018-12-12T06:09:29.314Z,12.83
2018-12-12T06:11:57.612Z,10.27
2018-12-12T06:14:25.929Z,9.63
2018-12-12T06:16:54.459Z,11.83
2018-12-12T06:19:22.713Z,16.73
2018-12-12T06:21:51.078Z,14.47
2018-12-12T06:24:19.309Z,7.07
2018-12-12T06:26:47.541Z,8.23
2018-12-12T06:29:16.150Z,16.57
2018-12-12T06:31:44.442Z,17.40
2018-12-12T06:34:12.737Z,13.93
2018-12-12T06:36:41.004Z,18.97
2018-12-12T06:39:09.284Z,12.43
2018-12-12T06:41:37.545Z,9.67
2018-12-12T06:44:05.807Z,8.80
2018-12-12T06:46:34.075Z,6.73
2018-12-12T06:49:02.867Z,7.53
2018-12-12T06:51:31.190Z,7.47
2018-12-12T06:53:59.547Z,6.57
2018-12-12T06:56:28.094Z,6.13
2018-12-12T06:58:57.757Z,7.70
2018-12-12T07:01:26.031Z,5.20
2018-12-12T07:03:54.367Z,5.80
2018-12-12T07:06:22.626Z,6.97
2018-12-12T07:08:52.019Z,8.93
2018-12-12T07:11:20.398Z,6.73
2018-12-12T07:13:49.215Z,8.47
2018-12-12T07:16:17.786Z,7.27
2018-12-12T07:18:46.023Z,7.30
2018-12-12T07:21:14.427Z,9.03
2018-12-12T07:23:42.682Z,9.10
2018-12-12T07:26:11.266Z,6.83
2018-12-12T07:28:39.509Z,6.67
2018-12-12T07:31:07.892Z,4.43
2018-12-12T07:33:36.303Z,9.33
2018-12-12T07:36:04.662Z,6.60
2018-12-12T07:38:33.511Z,4.60
2018-12-12T07:41:01.903Z,5.87
2018-12-12T07:43:30.126Z,7.33
2018-12-12T07:45:58.440Z,7.13
2018-12-12T07:48:27.187Z,5.77
2018-12-12T07:50:55.814Z,6.93
2018-12-12T07:53:24.520Z,7.70
2018-12-12T07:55:53.499Z,6.00
2018-12-12T07:58:30.623Z,7.77
2018-12-12T08:00:59.225Z,8.00
2018-12-12T08:03:27.705Z,6.57
2018-12-12T08:05:56.110Z,7.13
2018-12-12T08:08:25.416Z,7.10
2018-12-12T08:10:53.705Z,6.57
2018-12-12T08:13:22.010Z,9.57
2018-12-12T08:15:51.012Z,7.83
2018-12-12T08:18:19.366Z,11.37
2018-12-12T08:20:47.770Z,5.93
2018-12-12T08:23:16.406Z,11.67
2018-12-12T08:25:45.771Z,11.53
2018-12-12T08:28:14.216Z,7.00
2018-12-12T08:30:42.434Z,13.60
2018-12-12T08:33:11.318Z,6.97
2018-12-12T08:35:39.814Z,8.67
2018-12-12T08:38:08.184Z,9.30
2018-12-12T08:40:36.575Z,7.23
2018-12-12T08:43:05.079Z,8.53
2018-12-12T08:45:33.414Z,8.70
2018-12-12T08:48:01.770Z,9.47
2018-12-12T08:50:30.744Z,8.10
2018-12-12T08:52:59.035Z,8.33
2018-12-12T08:55:27.331Z,8.77
2018-12-12T08:57:55.605Z,13.47
2018-12-12T09:00:23.943Z,7.77
2018-12-12T09:02:52.331Z,8.47
2018-12-12T09:05:20.667Z,7.67
2018-12-12T09:07:48.952Z,8.43
2018-12-12T09:10:17.305Z,7.50
2018-12-12T09:12:45.675Z,9.73
2018-12-12T09:15:14.330Z,9.37
2018-12-12T09:17:42.665Z,7.50
2018-12-12T09:20:11.024Z,11.63
2018-12-12T09:22:39.403Z,9.90
2018-12-12T09:25:07.452Z,18.17
2018-12-12T09:27:35.764Z,7.47
2018-12-12T09:30:04.803Z,7.20
2018-12-12T09:32:33.100Z,12.33
2018-12-12T09:35:01.327Z,7.80
2018-12-12T09:37:29.604Z,10.30
2018-12-12T09:39:57.926Z,10.23
2018-12-12T09:42:26.515Z,8.90
2018-12-12T09:44:54.929Z,8.47
2018-12-12T09:47:23.371Z,14.70
2018-12-12T09:49:51.643Z,13.43
2018-12-12T09:52:19.941Z,10.77
2018-12-12T09:54:48.338Z,10.50
2018-12-12T09:57:16.581Z,9.23
2018-12-12T09:59:44.967Z,10.53
2018-12-12T10:02:13.309Z,11.33
2018-12-12T10:04:41.634Z,10.53
2018-12-12T10:07:10.233Z,10.37
2018-12-12T10:09:38.611Z,12.80
2018-12-12T10:12:07.000Z,9.53
2018-12-12T10:14:35.360Z,11.07
2018-12-12T10:17:07.446Z,9.13
2018-12-12T10:19:35.746Z,13.90
2018-12-12T10:22:04.318Z,11.03
2018-12-12T10:24:32.916Z,16.87
2018-12-12T10:27:01.171Z,13.20
2018-12-12T10:29:31.569Z,12.83
2018-12-12T10:31:59.954Z,13.93
2018-12-12T10:34:28.245Z,9.97
2018-12-12T10:36:56.665Z,8.90
2018-12-12T10:39:24.994Z,13.47
2018-12-12T10:41:53.843Z,12.23
2018-12-12T10:44:22.171Z,11.57
2018-12-12T10:46:50.406Z,9.87
2018-12-12T10:49:18.702Z,13.93
2018-12-12T10:51:47.045Z,14.10
2018-12-12T10:54:15.459Z,11.93
2018-12-12T10:56:43.777Z,13.53
2018-12-12T10:59:12.134Z,14.10
2018-12-12T11:01:45.759Z,12.50
2018-12-12T11:04:14.212Z,11.27
2018-12-12T11:06:42.658Z,14.43
2018-12-12T11:09:11.014Z,13.13
2018-12-12T11:11:39.364Z,18.23
2018-12-12T11:14:07.830Z,14.97
2018-12-12T11:16:36.252Z,9.80
2018-12-12T11:19:04.940Z,9.70
2018-12-12T11:21:34.115Z,12.70
2018-12-12T11:24:02.454Z,14.03
2018-12-12T11:26:30.785Z,13.87
2018-12-12T11:28:59.115Z,12.33
2018-12-12T11:31:27.818Z,14.80
2018-12-12T11:33:56.202Z,13.90
2018-12-12T11:36:24.571Z,13.10
2018-12-12T11:38:52.933Z,14.97
2018-12-12T11:41:22.044Z,16.20
2018-12-12T11:43:50.274Z,15.43
2018-12-12T11:46:18.561Z,14.57
2018-12-12T11:48:46.835Z,17.13
2018-12-12T11:51:15.138Z,13.27
2018-12-12T11:53:43.534Z,14.53
2018-12-12T11:56:12.193Z,9.57
2018-12-12T11:58:41.684Z,10.63
2018-12-12T12:01:10.507Z,11.77
2018-12-12T12:03:41.111Z,12.53
2018-12-12T12:06:11.838Z,11.47
2018-12-12T12:08:42.480Z,16.03
2018-12-12T12:11:13.356Z,10.50
2018-12-12T12:13:42.030Z,11.27
2018-12-12T12:16:12.694Z,11.43
2018-12-12T12:18:43.348Z,10.00
2018-12-12T12:21:14.927Z,9.73
2018-12-12T12:23:45.715Z,10.93
2018-12-12T12:26:14.906Z,9.40
2018-12-12T12:28:43.463Z,13.97
2018-12-12T12:31:12.017Z,10.07
2018-12-12T12:33:41.149Z,10.47
2018-12-12T12:36:09.666Z,9.13
2018-12-12T12:38:38.171Z,12.13
2018-12-12T12:41:06.708Z,9.70
2018-12-12T12:43:35.059Z,12.97
2018-12-12T12:46:03.363Z,16.13
2018-12-12T12:48:31.827Z,8.37
2018-12-12T12:51:00.322Z,8.20
2018-12-12T12:53:28.985Z,7.10
2018-12-12T12:55:57.280Z,10.33
2018-12-12T12:58:25.898Z,9.30
2018-12-12T13:06:40.362Z,9.93
2018-12-12T13:09:08.783Z,6.30
2018-12-12T13:11:37.145Z,8.03
2018-12-12T13:14:05.657Z,8.23
2018-12-12T13:16:34.111Z,6.60
2018-12-12T13:19:02.436Z,9.43
2018-12-12T13:21:30.820Z,6.70
2018-12-12T13:23:59.138Z,8.47
2018-12-12T13:26:27.486Z,6.53
2018-12-12T13:28:55.888Z,10.17
2018-12-12T13:31:24.294Z,8.37
2018-12-12T13:33:53.065Z,11.30
2018-12-12T13:36:21.371Z,10.00
2018-12-12T13:38:49.749Z,7.97
2018-12-12T13:41:18.107Z,9.03
2018-12-12T13:43:46.458Z,7.97
2018-12-12T13:46:14.781Z,7.50
2018-12-12T13:48:43.165Z,8.93
2018-12-12T13:51:12.240Z,8.10
2018-12-12T13:53:40.749Z,9.37
2018-12-12T13:56:09.139Z,6.57
2018-12-12T13:58:37.546Z,10.33
2018-12-12T14:01:05.982Z,12.10
2018-12-12T14:03:34.264Z,9.97
2018-12-12T14:06:02.911Z,6.43
2018-12-12T14:08:31.273Z,8.07
2018-12-12T14:10:59.760Z,6.37
2018-12-12T14:13:28.147Z,6.53
2018-12-12T14:15:56.496Z,9.63
2018-12-12T14:18:25.163Z,7.90
2018-12-12T14:20:53.568Z,5.97
2018-12-12T14:23:21.913Z,8.57
2018-12-12T14:25:50.190Z,7.93
2018-12-12T14:28:18.680Z,6.93
2018-12-12T14:30:47.037Z,7.00
2018-12-12T14:33:15.511Z,6.77
2018-12-12T14:35:44.112Z,7.67
2018-12-12T14:38:12.480Z,6.47
2018-12-12T14:40:41.440Z,6.43
2018-12-12T14:43:09.831Z,7.70
2018-12-12T14:45:38.143Z,6.50
2018-12-12T14:48:10.173Z,8.63
2018-12-12T14:50:47.996Z,8.80
2018-12-12T14:53:29.264Z,5.80
2018-12-12T14:56:10.712Z,8.93
2018-12-12T14:58:38.992Z,7.93
2018-12-12T15:01:07.915Z,7.63
2018-12-12T15:03:36.885Z,9.70
2018-12-12T15:06:05.126Z,9.67
2018-12-12T15:08:33.411Z,8.57
2018-12-12T15:11:02.544Z,9.73
2018-12-12T15:13:31.349Z,10.10
2018-12-12T15:15:59.735Z,9.07
2018-12-12T15:18:27.979Z,10.37
2018-12-12T15:20:56.260Z,10.37
2018-12-12T15:23:24.574Z,9.27
2018-12-12T15:25:52.852Z,6.80
2018-12-12T15:28:21.126Z,8.10
2018-12-12T15:30:49.482Z,12.53
2018-12-12T15:33:18.507Z,8.07
2018-12-12T15:35:46.933Z,8.27
2018-12-12T15:38:15.466Z,9.47
2018-12-12T15:40:43.762Z,11.40
2018-12-12T15:43:12.096Z,8.77
2018-12-12T15:45:40.501Z,7.97
2018-12-12T15:48:08.750Z,8.53
2018-12-12T15:50:37.032Z,6.60
2018-12-12T15:53:05.415Z,7.03
2018-12-12T15:55:33.690Z,6.33
2018-12-12T15:58:02.136Z,7.20
2018-12-12T16:00:30.570Z,6.17
2018-12-12T16:02:59.488Z,8.17
2018-12-12T16:05:28.039Z,7.50
2018-12-12T16:07:56.380Z,5.97
2018-12-12T16:10:24.704Z,7.90
2018-12-12T16:12:53.265Z,5.13
2018-12-12T16:15:21.629Z,6.53
2018-12-12T16:17:49.977Z,7.37
2018-12-12T16:20:18.254Z,6.03
2018-12-12T16:22:46.546Z,7.40
2018-12-12T16:25:14.824Z,8.70
2018-12-12T16:27:43.516Z,5.10
2018-12-12T16:30:11.897Z,5.43
2018-12-12T16:32:40.206Z,5.43
2018-12-12T16:35:08.562Z,5.10
2018-12-12T16:37:37.215Z,6.07
2018-12-12T16:40:05.998Z,7.20
2018-12-12T16:42:34.430Z,5.83
2018-12-12T16:45:02.795Z,4.97
2018-12-12T16:47:31.210Z,5.97
2018-12-12T16:49:59.505Z,4.97
2018-12-12T16:52:27.838Z,5.70
2018-12-12T16:54:56.370Z,5.50
2018-12-12T16:57:24.822Z,4.97
2018-12-12T16:59:53.360Z,3.60
2018-12-12T17:02:21.754Z,4.00
2018-12-12T17:04:50.054Z,3.77
2018-12-12T17:07:18.444Z,3.33
2018-12-12T17:09:47.187Z,4.10
2018-12-12T17:12:15.462Z,8.20
2018-12-12T17:14:45.689Z,2.97
2018-12-12T17:17:14.020Z,3.93
2018-12-12T17:19:42.892Z,4.00
2018-12-12T17:22:11.318Z,5.27
2018-12-12T17:24:39.570Z,7.87
2018-12-12T17:27:08.047Z,4.30
2018-12-12T17:29:36.839Z,4.57
2018-12-12T17:32:05.424Z,4.57
2018-12-12T17:34:33.916Z,8.63
2018-12-12T17:37:02.187Z,5.00
2018-12-12T17:39:30.468Z,4.43
2018-12-12T17:41:58.882Z,5.27
2018-12-12T17:44:27.238Z,6.37
2018-12-12T17:46:55.602Z,6.97
2018-12-12T17:49:23.952Z,7.50
2018-12-12T17:51:52.276Z,9.23
2018-12-12T17:54:20.944Z,5.07
2018-12-12T17:56:49.242Z,5.10
2018-12-12T18:01:43.490Z,6.67
2018-12-12T18:04:12.487Z,6.10
2018-12-12T18:06:40.794Z,5.33
2018-12-12T18:09:09.423Z,6.00
2018-12-12T18:11:37.763Z,5.33
2018-12-12T18:14:07.124Z,4.63
2018-12-12T18:16:36.083Z,5.17
2018-12-12T18:19:04.523Z,5.97
2018-12-12T18:21:32.776Z,4.97
2018-12-12T18:24:02.226Z,7.00
2018-12-12T18:26:30.516Z,4.43
2018-12-12T18:28:59.457Z,7.27
2018-12-12T18:31:27.834Z,6.10
2018-12-12T18:33:56.379Z,5.80
2018-12-12T18:36:24.783Z,6.07
2018-12-12T18:38:54.227Z,6.40
2018-12-12T18:41:22.556Z,5.87
2018-12-12T18:43:50.954Z,8.67
2018-12-12T18:46:19.391Z,9.00
2018-12-12T18:48:47.693Z,8.30
2018-12-12T18:51:16.041Z,7.27
2018-12-12T18:53:44.397Z,6.77
2018-12-12T18:56:12.773Z,6.23
2018-12-12T18:58:41.877Z,9.00
2018-12-12T19:01:10.490Z,8.43
2018-12-12T19:03:39.005Z,6.57
2018-12-12T19:06:07.345Z,6.57
2018-12-12T19:08:36.323Z,7.17
2018-12-12T19:11:05.384Z,6.37
2018-12-12T19:13:33.870Z,10.20
2018-12-12T19:16:02.407Z,8.00
2018-12-12T19:18:31.305Z,7.57
2018-12-12T19:21:00.325Z,8.90
2018-12-12T19:23:29.131Z,9.00
2018-12-12T19:25:57.420Z,6.63
2018-12-12T19:28:25.730Z,8.57
2018-12-12T19:30:54.577Z,7.77
2018-12-12T19:33:23.244Z,7.07
2018-12-12T19:35:51.626Z,9.80
2018-12-12T19:38:20.206Z,7.53
2018-12-12T19:40:48.688Z,7.97
2018-12-12T19:43:17.078Z,7.03
2018-12-12T19:45:45.487Z,6.67
2018-12-12T19:48:13.754Z,6.30
2018-12-12T19:50:42.185Z,6.57
2018-12-12T19:53:10.831Z,7.50
2018-12-12T19:55:39.363Z,6.63
2018-12-12T19:58:07.669Z,7.57
2018-12-12T20:00:36.419Z,8.23
2018-12-12T20:03:04.905Z,6.93
2018-12-12T20:05:33.454Z,10.80
2018-12-12T20:08:01.950Z,11.13
2018-12-12T20:10:30.365Z,9.00
2018-12-12T20:12:58.623Z,7.97
2018-12-12T20:15:32.416Z,8.73
2018-12-12T20:18:02.121Z,10.13
2018-12-12T20:20:30.907Z,8.77
2018-12-12T20:22:59.254Z,9.70
2018-12-12T20:25:27.582Z,10.23
2018-12-12T20:27:56.172Z,10.77
2018-12-12T20:30:24.473Z,8.57
2018-12-12T20:32:52.990Z,11.50
2018-12-12T20:35:21.690Z,16.63
2018-12-12T20:37:50.054Z,9.67
2018-12-12T20:40:18.542Z,9.83
2018-12-12T20:42:47.246Z,11.43
2018-12-12T20:45:15.847Z,10.23
2018-12-12T20:47:45.258Z,10.47
2018-12-12T20:50:13.595Z,11.50
2018-12-12T20:52:44.684Z,14.60
2018-12-12T20:55:13.100Z,12.37
2018-12-12T20:57:42.242Z,13.63
2018-12-12T21:00:10.844Z,12.13
2018-12-12T21:02:40.305Z,10.30
2018-12-12T21:05:08.592Z,11.50
2018-12-12T21:07:36.931Z,12.60
2018-12-12T21:10:06.517Z,14.30
2018-12-12T21:12:35.140Z,10.80
2018-12-12T21:15:03.548Z,11.37
2018-12-12T21:17:31.915Z,13.23
2018-12-12T21:20:00.303Z,11.87
2018-12-12T21:22:28.829Z,11.33
2018-12-12T21:24:57.048Z,8.13
2018-12-12T21:27:26.105Z,9.73
2018-12-12T21:29:54.389Z,8.50
2018-12-12T21:32:22.742Z,10.90
2018-12-12T21:34:50.990Z,9.73
2018-12-12T21:37:19.315Z,9.60
2018-12-12T21:39:47.679Z,9.47
2018-12-12T21:42:16.312Z,12.00
2018-12-12T21:44:44.690Z,11.00
2018-12-12T21:47:12.933Z,9.30
2018-12-12T21:49:41.954Z,8.80
2018-12-12T21:52:10.616Z,9.13
2018-12-12T21:54:39.037Z,12.10
2018-12-12T21:57:07.394Z,8.97
2018-12-12T21:59:35.906Z,8.20
2018-12-12T22:02:04.485Z,7.33
2018-12-12T22:04:37.165Z,10.23
2018-12-12T22:07:03.118Z,7.27
2018-12-12T22:09:31.621Z,7.57
2018-12-12T22:11:59.892Z,7.87
2018-12-12T22:14:28.157Z,10.13
2018-12-12T22:16:56.634Z,9.03
2018-12-12T22:19:25.187Z,9.00
2018-12-12T22:21:53.556Z,11.37
2018-12-12T22:24:21.881Z,13.43
2018-12-12T22:26:50.207Z,9.40
2018-12-12T22:29:18.612Z,9.87
2018-12-12T22:31:47.738Z,9.87
2018-12-12T22:34:15.979Z,11.07
2018-12-12T22:36:44.294Z,11.80
2018-12-12T22:39:12.518Z,12.93
2018-12-12T22:41:40.864Z,13.20
2018-12-12T22:44:09.201Z,12.47
2018-12-12T22:46:38.299Z,11.03
2018-12-12T22:49:06.519Z,14.00
2018-12-12T22:51:34.850Z,12.70
2018-12-12T22:54:03.849Z,10.80
2018-12-12T22:56:32.132Z,13.63
2018-12-12T22:59:00.416Z,13.67
2018-12-12T23:01:28.870Z,13.37
2018-12-12T23:03:57.856Z,13.00
2018-12-12T23:06:26.174Z,13.33
2018-12-12T23:08:54.456Z,14.67
2018-12-12T23:11:22.777Z,13.03
2018-12-12T23:13:51.041Z,12.77
2018-12-12T23:16:19.403Z,14.50
2018-12-12T23:18:47.666Z,11.50
2018-12-12T23:21:15.950Z,12.83
2018-12-12T23:23:44.221Z,10.30
2018-12-12T23:26:12.476Z,11.67
2018-12-12T23:28:40.740Z,10.47
2018-12-12T23:31:08.972Z,9.80
2018-12-12T23:33:37.297Z,8.30
2018-12-12T23:36:05.716Z,11.43
2018-12-12T23:38:34.009Z,10.13
2018-12-12T23:41:02.330Z,9.47
2018-12-12T23:43:30.594Z,7.23
2018-12-12T23:45:59.233Z,9.63
2018-12-12T23:48:27.465Z,8.77
2018-12-12T23:50:55.719Z,9.17
2018-12-12T23:53:23.973Z,6.87
2018-12-12T23:55:52.232Z,7.50
2018-12-12T23:58:20.571Z,7.93
